Berry, Illinois
Current Conditions -  °F | °C
As of 11:52 AM on Wednesday 28 Jan 2015 (Local Time) from KSPI Reporting Station
Clear Clear  
Wind Chill: 30°   Ceiling: Unl
Heat Index: 39°   Visibility: 10mi
Dew Point: 29°   Wind: 17mph
Humidity: 67%   Direction: 150°SSE
Pressure: 30.15"   Gusts: 25mph
Location:  39.7312°N, 89.5322°W
Report Text: KSPI 281752Z 15015G22KT 10SM CLR 04/M02 A3015 RMK AO2 PK WND 17028/1739 PRESFR SLP215 T00391017 10039 21033 58030
Loading
Personal Weather Stations






























Interactive Weather Map New forecast layout! Learn more

10-Day Weather Forecast

Advertisements
Track Severe Weather on mobile